sensor_id;sensor_type;location;lat;lon;timestamp;P1;P2;P0
31163;PMS5003;17796;49.296;-117.656;2022-07-31T00:05:43;27;25;
31163;PMS5003;17796;49.296;-117.656;2022-07-31T00:20:46;29;28;
31163;PMS5003;17796;49.296;-117.656;2022-07-31T00:35:50;29;29;
31163;PMS5003;17796;49.296;-117.656;2022-07-31T00:50:54;32;25;
31163;PMS5003;17796;49.296;-117.656;2022-07-31T01:05:58;32;25;
31163;PMS5003;17796;49.296;-117.656;2022-07-31T01:21:06;30;30;
31163;PMS5003;17796;49.296;-117.656;2022-07-31T01:36:20;29;29;
31163;PMS5003;17796;49.296;-117.656;2022-07-31T01:51:26;31;29;
31163;PMS5003;17796;49.296;-117.656;2022-07-31T02:06:32;27;25;
31163;PMS5003;17796;49.296;-117.656;2022-07-31T02:21:36;30;24;
31163;PMS5003;17796;49.296;-117.656;2022-07-31T02:36:41;27;26;
31163;PMS5003;17796;49.296;-117.656;2022-07-31T02:51:45;27;23;
31163;PMS5003;17796;49.296;-117.656;2022-07-31T03:06:49;27;25;
31163;PMS5003;17796;49.296;-117.656;2022-07-31T03:21:53;29;28;
31163;PMS5003;17796;49.296;-117.656;2022-07-31T03:36:57;30;29;
31163;PMS5003;17796;49.296;-117.656;2022-07-31T03:52:00;27;24;
31163;PMS5003;17796;49.296;-117.656;2022-07-31T04:07:05;23;22;
31163;PMS5003;17796;49.296;-117.656;2022-07-31T04:22:08;19;17;
31163;PMS5003;17796;49.296;-117.656;2022-07-31T04:37:12;18;18;
31163;PMS5003;17796;49.296;-117.656;2022-07-31T04:52:16;16;14;
31163;PMS5003;17796;49.296;-117.656;2022-07-31T05:07:19;15;13;
31163;PMS5003;17796;49.296;-117.656;2022-07-31T05:22:23;17;17;
31163;PMS5003;17796;49.296;-117.656;2022-07-31T05:37:27;16;15;
31163;PMS5003;17796;49.296;-117.656;2022-07-31T05:52:30;16;15;
31163;PMS5003;17796;49.296;-117.656;2022-07-31T06:07:34;13;13;
31163;PMS5003;17796;49.296;-117.656;2022-07-31T06:22:39;16;16;
31163;PMS5003;17796;49.296;-117.656;2022-07-31T06:37:43;21;19;
31163;PMS5003;17796;49.296;-117.656;2022-07-31T06:52:47;13;13;
31163;PMS5003;17796;49.296;-117.656;2022-07-31T07:07:50;12;12;
31163;PMS5003;17796;49.296;-117.656;2022-07-31T07:22:54;7;7;
31163;PMS5003;17796;49.296;-117.656;2022-07-31T07:37:58;12;10;
31163;PMS5003;17796;49.296;-117.656;2022-07-31T07:53:02;12;12;
31163;PMS5003;17796;49.296;-117.656;2022-07-31T08:08:05;13;11;
31163;PMS5003;17796;49.296;-117.656;2022-07-31T08:23:09;12;12;
31163;PMS5003;17796;49.296;-117.656;2022-07-31T08:38:13;10;10;
31163;PMS5003;17796;49.296;-117.656;2022-07-31T08:53:16;15;15;
31163;PMS5003;17796;49.296;-117.656;2022-07-31T09:08:21;14;13;
31163;PMS5003;17796;49.296;-117.656;2022-07-31T09:23:26;12;12;
31163;PMS5003;17796;49.296;-117.656;2022-07-31T09:38:32;13;13;
31163;PMS5003;17796;49.296;-117.656;2022-07-31T09:53:42;18;13;
31163;PMS5003;17796;49.296;-117.656;2022-07-31T10:08:46;10;10;
31163;PMS5003;17796;49.296;-117.656;2022-07-31T10:23:51;10;10;
31163;PMS5003;17796;49.296;-117.656;2022-07-31T10:39:02;12;12;
31163;PMS5003;17796;49.296;-117.656;2022-07-31T10:54:06;12;12;
31163;PMS5003;17796;49.296;-117.656;2022-07-31T11:09:19;10;10;
31163;PMS5003;17796;49.296;-117.656;2022-07-31T11:24:23;10;10;
31163;PMS5003;17796;49.296;-117.656;2022-07-31T11:39:27;10;10;
31163;PMS5003;17796;49.296;-117.656;2022-07-31T11:54:32;14;14;
31163;PMS5003;17796;49.296;-117.656;2022-07-31T12:09:36;11;11;
31163;PMS5003;17796;49.296;-117.656;2022-07-31T12:24:41;14;14;
31163;PMS5003;17796;49.296;-117.656;2022-07-31T12:39:52;12;12;
31163;PMS5003;17796;49.296;-117.656;2022-07-31T12:54:56;11;11;
31163;PMS5003;17796;49.296;-117.656;2022-07-31T13:10:00;11;11;
31163;PMS5003;17796;49.296;-117.656;2022-07-31T13:25:05;10;10;
31163;PMS5003;17796;49.296;-117.656;2022-07-31T13:40:09;13;13;
31163;PMS5003;17796;49.296;-117.656;2022-07-31T13:55:13;11;10;
31163;PMS5003;17796;49.296;-117.656;2022-07-31T14:10:17;9;9;
31163;PMS5003;17796;49.296;-117.656;2022-07-31T14:25:20;12;12;
31163;PMS5003;17796;49.296;-117.656;2022-07-31T14:40:24;13;12;
31163;PMS5003;17796;49.296;-117.656;2022-07-31T14:55:28;12;12;
31163;PMS5003;17796;49.296;-117.656;2022-07-31T15:10:32;13;12;
31163;PMS5003;17796;49.296;-117.656;2022-07-31T15:25:35;15;14;
31163;PMS5003;17796;49.296;-117.656;2022-07-31T15:40:39;14;12;
31163;PMS5003;17796;49.296;-117.656;2022-07-31T15:55:43;17;15;
31163;PMS5003;17796;49.296;-117.656;2022-07-31T16:10:47;14;13;
31163;PMS5003;17796;49.296;-117.656;2022-07-31T16:25:51;16;16;
31163;PMS5003;17796;49.296;-117.656;2022-07-31T16:40:54;15;14;
31163;PMS5003;17796;49.296;-117.656;2022-07-31T16:55:58;13;13;
31163;PMS5003;17796;49.296;-117.656;2022-07-31T17:11:02;14;13;
31163;PMS5003;17796;49.296;-117.656;2022-07-31T17:26:05;20;16;
31163;PMS5003;17796;49.296;-117.656;2022-07-31T17:41:09;18;16;
31163;PMS5003;17796;49.296;-117.656;2022-07-31T17:56:14;20;18;
31163;PMS5003;17796;49.296;-117.656;2022-07-31T18:11:18;17;17;
31163;PMS5003;17796;49.296;-117.656;2022-07-31T18:26:21;16;16;
31163;PMS5003;17796;49.296;-117.656;2022-07-31T18:41:25;21;18;
31163;PMS5003;17796;49.296;-117.656;2022-07-31T18:56:29;19;18;
31163;PMS5003;17796;49.296;-117.656;2022-07-31T19:11:32;14;14;
31163;PMS5003;17796;49.296;-117.656;2022-07-31T19:26:36;22;18;
31163;PMS5003;17796;49.296;-117.656;2022-07-31T19:41:40;19;19;
31163;PMS5003;17796;49.296;-117.656;2022-07-31T19:56:44;19;18;
31163;PMS5003;17796;49.296;-117.656;2022-07-31T20:11:47;20;17;
31163;PMS5003;17796;49.296;-117.656;2022-07-31T20:26:51;19;19;
31163;PMS5003;17796;49.296;-117.656;2022-07-31T20:41:55;26;24;
31163;PMS5003;17796;49.296;-117.656;2022-07-31T20:56:58;50;46;
31163;PMS5003;17796;49.296;-117.656;2022-07-31T21:12:02;26;23;
31163;PMS5003;17796;49.296;-117.656;2022-07-31T21:27:09;25;22;
31163;PMS5003;17796;49.296;-117.656;2022-07-31T21:42:15;30;26;
31163;PMS5003;17796;49.296;-117.656;2022-07-31T21:57:19;20;20;
31163;PMS5003;17796;49.296;-117.656;2022-07-31T22:12:22;26;24;
31163;PMS5003;17796;49.296;-117.656;2022-07-31T22:27:27;25;23;
31163;PMS5003;17796;49.296;-117.656;2022-07-31T22:42:31;21;21;
31163;PMS5003;17796;49.296;-117.656;2022-07-31T22:57:35;19;18;
31163;PMS5003;17796;49.296;-117.656;2022-07-31T23:12:39;24;21;
31163;PMS5003;17796;49.296;-117.656;2022-07-31T23:27:42;22;21;
31163;PMS5003;17796;49.296;-117.656;2022-07-31T23:42:46;24;22;
31163;PMS5003;17796;49.296;-117.656;2022-07-31T23:57:50;21;19;
